Time;durP1;ratioP1;P1;durP2;ratioP2;P2;SDS_P1;SDS_P2;PMS_P1;PMS_P2;Temp;Humidity;BMP_temperature;BMP_pressure;BME280_temperature;BME280_humidity;BME280_pressure;Samples;Min_cycle;Max_cycle;Signal;HPM_P1;HPM_P2
2021/12/20 00:02:10;;;;;;;10.37;6.80;;;;;;;2.90;86.97;96006.28;5095586;28;20569;-39
2021/12/20 00:04:39;;;;;;;15.60;7.57;;;;;;;2.92;87.32;95970.19;5095587;28;20439;-37
2021/12/20 00:07:06;;;;;;;9.63;5.67;;;;;;;2.86;86.86;95949.03;5095548;28;20500;-38
2021/12/20 00:09:33;;;;;;;8.83;5.80;;;;;;;3.03;86.47;95966.91;5095501;28;20931;-36
2021/12/20 00:12:00;;;;;;;10.73;6.90;;;;;;;2.99;87.01;95966.53;5095438;28;20451;-38
2021/12/20 00:14:29;;;;;;;10.97;6.70;;;;;;;3.04;86.93;95968.53;5095341;28;20439;-35
2021/12/20 00:16:56;;;;;;;10.00;6.37;;;;;;;3.06;86.53;95969.13;5094392;28;20803;-39
2021/12/20 00:19:25;;;;;;;18.97;6.20;;;;;;;3.03;86.66;95982.63;5095339;28;20922;-38
2021/12/20 00:21:53;;;;;;;15.80;7.50;;;;;;;3.02;86.66;95991.53;5095411;28;20500;-39
2021/12/20 00:24:20;;;;;;;13.47;6.43;;;;;;;3.03;86.32;95980.84;5095183;28;20528;-38
2021/12/20 00:26:48;;;;;;;8.20;6.40;;;;;;;3.02;86.15;95981.84;5095150;28;20930;-38
2021/12/20 00:29:15;;;;;;;8.20;6.03;;;;;;;3.04;86.30;95985.06;5094802;28;20808;-38
2021/12/20 00:31:44;;;;;;;14.50;6.50;;;;;;;3.02;86.23;95981.03;5095358;28;20443;-38
2021/12/20 00:34:11;;;;;;;8.00;5.10;;;;;;;3.07;86.47;95994.31;5095262;28;20504;-39
2021/12/20 00:36:39;;;;;;;13.63;5.17;;;;;;;3.12;86.00;95976.16;5094926;28;20446;-39
2021/12/20 00:41:51;;;;;;;8.00;5.83;;;;;;;3.18;85.29;95975.28;5095180;28;20478;-38
2021/12/20 00:44:18;;;;;;;14.27;5.67;;;;;;;3.19;85.67;95982.16;5095044;28;20443;-39
2021/12/20 00:46:47;;;;;;;10.13;5.77;;;;;;;3.21;85.64;95984.59;5094743;28;20446;-38
2021/12/20 00:49:14;;;;;;;11.90;5.43;;;;;;;3.23;85.02;95962.38;5094950;28;20442;-38
2021/12/20 00:51:41;;;;;;;9.97;5.20;;;;;;;3.27;85.16;95953.06;5094975;28;20798;-36
2021/12/20 00:54:08;;;;;;;7.03;5.13;;;;;;;3.28;84.86;95965.16;5094943;28;20446;-38
2021/12/20 00:56:35;;;;;;;8.67;4.97;;;;;;;3.30;84.85;95956.28;5094822;28;20442;-39
2021/12/20 00:59:03;;;;;;;11.83;5.87;;;;;;;3.32;85.05;95964.75;5094827;28;20443;-38
2021/12/20 01:01:30;;;;;;;8.30;5.33;;;;;;;3.33;85.18;95968.97;5094427;28;20478;-39
2021/12/20 01:03:59;;;;;;;10.40;5.07;;;;;;;3.38;84.82;95974.41;5094763;28;20474;-39
2021/12/20 01:06:26;;;;;;;8.60;5.70;;;;;;;3.38;84.78;95974.41;5094661;28;20849;-39
2021/12/20 01:08:53;;;;;;;8.97;5.53;;;;;;;3.34;84.93;95966.16;5094230;28;20455;-38
2021/12/20 01:11:24;;;;;;;13.63;5.40;;;;;;;3.39;84.56;95960.25;5094310;28;20541;-38
2021/12/20 01:13:53;;;;;;;10.23;6.17;;;;;;;3.23;84.72;95912.53;5094585;28;20484;-39
2021/12/20 01:16:29;;;;;;;10.50;5.47;;;;;;;3.42;84.48;95965.91;5094506;28;21008;-38
2021/12/20 01:18:58;;;;;;;7.53;6.90;;;;;;;3.44;84.63;95953.38;5094173;28;20877;-38
2021/12/20 01:21:25;;;;;;;9.90;5.70;;;;;;;3.44;84.77;95942.06;5094370;28;20490;-39
2021/12/20 01:23:53;;;;;;;6.57;4.90;;;;;;;3.41;84.91;95953.00;5094260;28;20447;-38
2021/12/20 01:26:20;;;;;;;9.73;5.87;;;;;;;3.46;84.56;95955.78;5093846;28;20927;-37
2021/12/20 01:28:48;;;;;;;9.67;5.70;;;;;;;3.45;84.65;95959.44;5093801;28;20467;-39
2021/12/20 01:31:15;;;;;;;9.63;6.10;;;;;;;3.46;84.41;95951.34;5094252;28;20447;-39
2021/12/20 01:33:42;;;;;;;8.17;5.87;;;;;;;3.48;83.62;95953.75;5094227;28;20798;-39
2021/12/20 01:36:11;;;;;;;7.50;4.83;;;;;;;3.50;84.29;95956.97;5093833;28;20443;-39
2021/12/20 01:38:38;;;;;;;12.30;5.80;;;;;;;3.51;84.36;95948.09;5094165;28;20918;-39
2021/12/20 01:41:07;;;;;;;6.03;4.57;;;;;;;3.41;84.22;95950.38;5094019;28;20504;-38
2021/12/20 01:43:35;;;;;;;11.77;5.53;;;;;;;3.54;84.03;95952.09;5093793;28;21010;-38
2021/12/20 01:46:02;;;;;;;10.47;6.80;;;;;;;3.51;83.99;95942.84;5094068;28;20522;-39
2021/12/20 01:48:30;;;;;;;6.10;4.73;;;;;;;3.50;84.36;95949.09;5094006;28;20498;-38
2021/12/20 01:51:30;;;;;;;7.07;5.20;;;;;;;3.52;84.23;95952.31;5093940;28;20799;-38
2021/12/20 01:53:59;;;;;;;7.50;5.60;;;;;;;3.51;83.60;95937.59;5093704;28;20431;-39
2021/12/20 01:56:27;;;;;;;6.67;5.20;;;;;;;3.53;83.97;95951.31;5094693;28;20446;-39
2021/12/20 01:59:02;;;;;;;8.23;5.00;;;;;;;3.49;83.75;95939.63;5093549;28;20446;-38
2021/12/20 02:01:29;;;;;;;5.73;5.13;;;;;;;3.49;84.03;95935.16;5093806;28;20474;-39
2021/12/20 02:04:00;;;;;;;7.60;5.23;;;;;;;3.51;84.29;95944.63;5093510;28;20447;-38
2021/12/20 02:06:33;;;;;;;8.67;6.20;;;;;;;3.51;83.86;95932.34;5093511;28;20442;-39
2021/12/20 02:09:07;;;;;;;8.67;5.33;;;;;;;3.56;83.92;95940.38;5093515;28;20906;-39
2021/12/20 02:11:35;;;;;;;11.77;5.67;;;;;;;3.54;84.12;95936.34;5093484;28;20438;-39
2021/12/20 02:14:03;;;;;;;8.90;5.40;;;;;;;3.53;84.19;95935.56;5093716;28;20439;-38
2021/12/20 02:16:30;;;;;;;7.17;5.07;;;;;;;3.52;84.22;95927.88;5093396;28;20488;-38
2021/12/20 02:19:01;;;;;;;9.97;6.00;;;;;;;3.55;84.40;95923.03;5093669;28;20928;-39
2021/12/20 02:21:30;;;;;;;6.70;4.83;;;;;;;3.53;84.19;95932.94;5093362;28;20431;-39
2021/12/20 02:23:57;;;;;;;6.70;4.87;;;;;;;3.51;84.45;95929.72;5093590;28;20446;-39
2021/12/20 02:26:25;;;;;;;7.57;5.20;;;;;;;3.48;84.29;95935.38;5093313;28;20961;-39
2021/12/20 02:28:54;;;;;;;6.17;4.30;;;;;;;3.52;83.97;95928.69;5093373;28;20471;-39
2021/12/20 02:39:47;;;;;;;10.20;5.37;;;;;;;3.52;84.60;95935.75;5084910;28;20434;-38
2021/12/20 02:42:18;;;;;;;12.40;5.80;;;;;;;3.42;84.75;95928.34;5097016;28;20489;-38
2021/12/20 02:44:48;;;;;;;8.80;5.73;;;;;;;3.49;84.81;95939.63;5097467;28;20423;-39
2021/12/20 02:47:28;;;;;;;8.37;4.50;;;;;;;3.48;84.77;95930.13;5097049;28;20443;-38
2021/12/20 02:49:57;;;;;;;7.70;4.83;;;;;;;3.45;85.08;95930.56;5097104;28;20427;-39
2021/12/20 02:52:26;;;;;;;9.80;5.93;;;;;;;3.47;84.71;95931.94;5096938;28;20809;-38
2021/12/20 02:54:54;;;;;;;9.63;5.33;;;;;;;3.45;85.14;95927.94;5097194;28;20526;-39
2021/12/20 02:57:21;;;;;;;8.00;5.70;;;;;;;3.38;85.26;95927.19;5096875;28;20439;-38
2021/12/20 02:59:49;;;;;;;9.77;5.03;;;;;;;3.46;85.30;95929.53;5097129;28;20442;-38
2021/12/20 03:02:18;;;;;;;11.67;7.00;;;;;;;3.44;85.40;95926.31;5097012;28;20482;-39
2021/12/20 03:04:46;;;;;;;10.47;6.30;;;;;;;3.47;85.20;95939.03;5096806;28;20508;-39
2021/12/20 03:07:21;;;;;;;14.07;7.90;;;;;;;3.47;85.27;95942.44;5097059;28;20447;-38
2021/12/20 03:09:54;;;;;;;7.50;4.40;;;;;;;3.46;85.22;95925.09;5096682;28;20483;-38
2021/12/20 03:12:24;;;;;;;4.93;4.07;;;;;;;3.46;85.04;95921.66;5096637;28;20433;-39
2021/12/20 03:14:55;;;;;;;5.30;4.77;;;;;;;3.44;85.24;95926.31;5096812;28;20529;-39
2021/12/20 03:17:23;;;;;;;7.90;4.97;;;;;;;3.45;84.91;95923.47;5096855;28;20772;-37
2021/12/20 03:19:50;;;;;;;9.87;6.60;;;;;;;3.54;84.55;95936.34;5096501;28;20446;-39
2021/12/20 03:22:18;;;;;;;7.70;5.57;;;;;;;3.48;83.86;95909.13;5096649;28;20486;-39
2021/12/20 03:24:47;;;;;;;6.33;4.73;;;;;;;3.60;83.74;95923.19;5096616;28;20953;-39
2021/12/20 03:27:15;;;;;;;4.70;4.10;;;;;;;3.56;83.84;95919.38;5096566;28;20948;-39
2021/12/20 03:29:43;;;;;;;7.80;3.90;;;;;;;3.52;84.02;95928.69;5096060;28;20470;-38
2021/12/20 03:32:10;;;;;;;6.40;4.17;;;;;;;3.36;84.07;95909.03;5096481;28;20447;-39
2021/12/20 03:34:37;;;;;;;6.30;5.20;;;;;;;3.55;84.02;95936.16;5096222;28;20439;-38
2021/12/20 03:37:04;;;;;;;9.77;6.07;;;;;;;3.52;84.42;95936.56;5096107;28;20446;-39
2021/12/20 03:39:32;;;;;;;6.03;4.33;;;;;;;3.52;84.32;95952.31;5096125;28;20445;-38
2021/12/20 03:42:00;;;;;;;7.63;4.73;;;;;;;3.53;84.01;95946.06;5095961;28;20479;-39
2021/12/20 03:44:32;;;;;;;8.30;4.77;;;;;;;3.43;84.05;95929.97;5096291;28;20443;-39
2021/12/20 03:47:00;;;;;;;6.23;4.13;;;;;;;3.55;83.67;95944.03;5096274;28;20480;-39
2021/12/20 03:49:27;;;;;;;7.03;4.50;;;;;;;3.57;83.97;95952.50;5096104;28;20435;-39
2021/12/20 03:51:55;;;;;;;7.67;4.87;;;;;;;3.54;84.25;95947.66;5095865;28;20438;-39
2021/12/20 03:54:22;;;;;;;7.73;4.20;;;;;;;3.55;83.76;95940.56;5095818;28;20443;-39
2021/12/20 03:56:50;;;;;;;4.00;3.60;;;;;;;3.53;84.35;95935.56;5096041;28;20449;-38
2021/12/20 03:59:17;;;;;;;7.83;4.97;;;;;;;3.56;84.16;95940.38;5095691;28;20449;-39
2021/12/20 04:01:46;;;;;;;5.63;3.97;;;;;;;3.55;83.99;95940.56;5095542;28;20435;-39
2021/12/20 04:04:13;;;;;;;5.00;4.47;;;;;;;3.58;83.77;95942.78;5095602;28;20450;-39
2021/12/20 04:06:40;;;;;;;4.90;3.43;;;;;;;3.58;83.60;95927.03;5095880;28;20447;-40
2021/12/20 04:09:08;;;;;;;7.77;5.30;;;;;;;3.59;83.55;95932.09;5095857;28;20927;-39
2021/12/20 04:11:35;;;;;;;10.73;7.80;;;;;;;3.60;82.86;95925.00;5095477;28;20451;-39
2021/12/20 04:14:02;;;;;;;7.87;6.00;;;;;;;3.63;83.38;95935.06;5095370;28;20446;-39
2021/12/20 04:16:30;;;;;;;7.33;4.77;;;;;;;3.52;83.58;95933.94;5095355;28;20450;-39
2021/12/20 04:18:58;;;;;;;7.37;4.67;;;;;;;3.64;83.55;95937.50;5095568;28;20439;-39
2021/12/20 04:21:26;;;;;;;7.93;5.50;;;;;;;3.66;83.93;95937.28;5095247;28;20454;-39
2021/12/20 04:23:53;;;;;;;8.37;5.20;;;;;;;3.61;84.01;95948.41;5095429;28;20982;-39
2021/12/20 04:26:20;;;;;;;5.60;4.63;;;;;;;3.57;84.23;95947.25;5095523;28;20777;-39
2021/12/20 04:28:48;;;;;;;9.03;4.87;;;;;;;3.57;84.15;95957.75;5094849;28;20475;-39
2021/12/20 04:31:15;;;;;;;5.77;4.30;;;;;;;3.60;84.03;95949.44;5095081;28;20874;-39
2021/12/20 04:33:42;;;;;;;9.93;6.30;;;;;;;3.58;84.20;95953.28;5095035;28;20443;-39
2021/12/20 04:36:11;;;;;;;6.80;4.30;;;;;;;3.59;83.85;95960.97;5094918;28;20439;-39
2021/12/20 04:38:39;;;;;;;6.57;4.50;;;;;;;3.56;84.38;95955.31;5094960;28;20443;-39
2021/12/20 04:41:07;;;;;;;6.60;4.60;;;;;;;3.56;83.99;95948.25;5094827;28;20935;-39
2021/12/20 04:43:34;;;;;;;13.43;5.53;;;;;;;3.59;83.69;95945.22;5094792;28;20494;-38
2021/12/20 04:46:02;;;;;;;5.20;4.27;;;;;;;3.60;84.02;95946.81;5095162;28;20521;-40
2021/12/20 04:48:29;;;;;;;5.60;4.60;;;;;;;3.64;83.78;95952.44;5094708;28;20938;-39
2021/12/20 04:50:57;;;;;;;6.77;4.07;;;;;;;3.65;83.92;95954.84;5094679;28;20443;-39
2021/12/20 04:53:26;;;;;;;9.37;5.73;;;;;;;3.63;83.52;95951.63;5094980;28;20450;-39
2021/12/20 04:55:53;;;;;;;5.10;4.70;;;;;;;3.64;83.58;95957.69;5094940;28;20439;-39
2021/12/20 04:58:20;;;;;;;6.50;4.33;;;;;;;3.63;83.60;95954.25;5095490;28;20454;-40
2021/12/20 05:00:48;;;;;;;8.00;5.07;;;;;;;3.64;83.22;95945.38;5094516;28;20439;-39
2021/12/20 05:03:15;;;;;;;8.00;4.93;;;;;;;3.66;83.25;95959.09;5091400;28;20487;-40
2021/12/20 05:05:42;;;;;;;8.40;5.27;;;;;;;3.65;83.43;95965.34;5092351;28;20435;-40
2021/12/20 05:08:10;;;;;;;9.97;5.70;;;;;;;3.61;83.32;95964.16;5092672;28;20443;-39
2021/12/20 05:10:41;;;;;;;6.77;4.90;;;;;;;3.62;83.68;95954.47;5092286;28;20447;-39
2021/12/20 05:13:10;;;;;;;7.43;4.70;;;;;;;3.62;83.52;95950.03;5092595;28;20489;-37
2021/12/20 05:15:39;;;;;;;13.10;7.73;;;;;;;3.61;83.91;95932.66;5091714;28;20439;-37
2021/12/20 05:18:07;;;;;;;31.30;13.63;;;;;;;3.62;83.61;95950.03;5092215;28;20453;-39
2021/12/20 05:20:35;;;;;;;8.57;7.60;;;;;;;3.57;83.99;95947.25;5092484;28;20442;-39
2021/12/20 05:23:04;;;;;;;6.40;5.23;;;;;;;3.63;83.53;95951.63;5091769;28;20502;-39
2021/12/20 05:25:31;;;;;;;14.67;11.40;;;;;;;3.57;84.05;95947.25;5092009;28;20846;-38
2021/12/20 05:28:00;;;;;;;23.70;10.87;;;;;;;3.58;84.16;95964.59;5092004;28;20453;-40
2021/12/20 05:30:28;;;;;;;19.80;9.10;;;;;;;3.59;83.91;95971.47;5091843;28;20574;-39
2021/12/20 05:32:55;;;;;;;16.73;8.63;;;;;;;3.57;84.18;95978.75;5092212;28;20473;-40
2021/12/20 05:35:23;;;;;;;7.97;5.30;;;;;;;3.60;83.36;95973.06;5091711;28;20443;-41
2021/12/20 05:37:51;;;;;;;19.03;10.80;;;;;;;3.60;83.40;95970.44;5092179;28;20461;-41
2021/12/20 05:40:18;;;;;;;65.63;32.00;;;;;;;3.59;83.71;95991.63;5091810;28;20928;-37
2021/12/20 05:42:46;;;;;;;11.20;8.40;;;;;;;3.56;83.60;95992.88;5091610;28;20478;-38
2021/12/20 05:45:16;;;;;;;15.80;9.90;;;;;;;3.57;83.20;95989.25;5091698;28;20439;-40
2021/12/20 05:47:43;;;;;;;18.40;12.53;;;;;;;3.59;83.68;95981.97;5091298;28;20454;-38
2021/12/20 05:50:11;;;;;;;14.40;7.53;;;;;;;3.62;83.13;96002.53;5093931;28;20446;-39
2021/12/20 05:52:39;;;;;;;15.33;9.73;;;;;;;3.62;83.38;96002.53;5093972;28;20447;-38
2021/12/20 05:55:08;;;;;;;13.50;7.73;;;;;;;3.61;83.18;96005.34;5093687;28;20443;-38
2021/12/20 05:57:36;;;;;;;12.10;8.10;;;;;;;3.57;83.58;96012.03;5093554;28;20529;-38
2021/12/20 06:00:07;;;;;;;6.97;6.27;;;;;;;3.50;84.35;96009.44;5093895;28;20443;-39
2021/12/20 06:02:36;;;;;;;16.30;9.90;;;;;;;3.53;84.74;96019.53;5093794;28;20431;-38
2021/12/20 06:05:03;;;;;;;9.07;6.00;;;;;;;3.57;83.81;96026.00;5093796;28;20796;-39
2021/12/20 06:07:30;;;;;;;7.23;4.10;;;;;;;3.54;83.94;96020.34;5093788;28;20443;-39
2021/12/20 06:09:58;;;;;;;5.27;4.53;;;;;;;3.48;84.65;96021.97;5094623;28;20438;-38
2021/12/20 06:12:25;;;;;;;20.17;5.70;;;;;;;3.48;84.92;96029.84;5093844;28;20446;-38
2021/12/20 06:14:52;;;;;;;5.57;4.50;;;;;;;3.51;83.99;96013.69;5096599;28;20926;-38
2021/12/20 06:17:20;;;;;;;7.47;5.80;;;;;;;3.54;84.17;96021.13;5097641;28;20443;-38
2021/12/20 06:19:48;;;;;;;14.07;7.80;;;;;;;3.55;84.26;96043.75;5095561;28;20465;-39
2021/12/20 06:22:16;;;;;;;18.00;13.20;;;;;;;3.59;84.32;96028.38;5095533;28;20450;-39
2021/12/20 06:24:43;;;;;;;14.20;8.60;;;;;;;3.60;84.21;96036.06;5095689;28;20493;-39
2021/12/20 06:27:10;;;;;;;18.43;9.33;;;;;;;3.63;83.84;96043.50;5095406;28;20829;-39
2021/12/20 06:29:38;;;;;;;4.80;4.30;;;;;;;3.51;83.35;96021.56;5095263;28;20479;-39
2021/12/20 06:32:05;;;;;;;8.83;7.30;;;;;;;3.71;82.89;96041.66;5094848;28;20443;-39
2021/12/20 06:34:33;;;;;;;14.50;10.50;;;;;;;3.72;83.19;96038.81;5095287;28;20455;-39
2021/12/20 06:37:01;;;;;;;20.77;13.47;;;;;;;3.73;83.09;96039.63;5095500;28;20814;-39
2021/12/20 06:39:30;;;;;;;15.93;9.83;;;;;;;3.78;82.71;96045.84;5095160;28;20800;-39
2021/12/20 06:41:57;;;;;;;12.30;7.43;;;;;;;3.76;82.59;96045.25;5095441;28;20492;-38
2021/12/20 06:44:25;;;;;;;15.93;7.17;;;;;;;3.81;82.78;96042.00;5094997;28;21008;-38
2021/12/20 06:46:53;;;;;;;6.87;6.30;;;;;;;3.87;82.07;96055.09;5094627;28;20454;-39
2021/12/20 06:49:21;;;;;;;10.60;7.50;;;;;;;3.91;82.13;96058.09;5095000;28;20806;-39
2021/12/20 06:51:48;;;;;;;8.80;4.60;;;;;;;3.96;80.75;96053.00;5095014;28;20492;-35
2021/12/20 06:54:18;;;;;;;9.10;5.43;;;;;;;3.84;81.50;96028.44;5094928;28;20807;-40
2021/12/20 06:56:46;;;;;;;14.10;8.00;;;;;;;3.98;82.00;96050.97;5095513;28;20439;-38
2021/12/20 06:59:14;;;;;;;8.33;6.00;;;;;;;3.94;81.53;96056.88;5094420;28;20906;-38
2021/12/20 07:01:42;;;;;;;8.00;4.20;;;;;;;3.88;80.73;96058.53;5094807;28;20466;-36
2021/12/20 07:04:12;;;;;;;7.40;5.23;;;;;;;3.94;80.99;96073.44;5094651;28;20490;-37
2021/12/20 07:06:39;;;;;;;8.50;5.30;;;;;;;3.97;80.61;96067.75;5095074;28;20439;-39
2021/12/20 07:09:07;;;;;;;11.90;6.70;;;;;;;4.03;80.67;96063.47;5094601;28;20442;-39
2021/12/20 07:11:36;;;;;;;11.03;6.83;;;;;;;4.08;80.98;96074.13;5095567;28;20918;-38
2021/12/20 07:14:04;;;;;;;5.57;4.83;;;;;;;4.12;80.16;96069.28;5096614;28;20808;-36
2021/12/20 07:16:33;;;;;;;15.87;5.70;;;;;;;4.15;80.61;96074.09;5096556;28;20529;-38
2021/12/20 07:19:00;;;;;;;13.93;7.23;;;;;;;4.14;80.38;96056.72;5096543;28;20439;-38
2021/12/20 07:21:28;;;;;;;13.20;7.03;;;;;;;4.15;80.68;96066.22;5096479;28;20443;-38
2021/12/20 07:23:56;;;;;;;19.57;10.90;;;;;;;4.18;80.49;96063.19;5096310;28;21008;-38
2021/12/20 07:26:23;;;;;;;34.10;17.67;;;;;;;4.22;79.97;96064.34;5096316;28;20443;-39
2021/12/20 07:28:52;;;;;;;6.00;3.97;;;;;;;4.24;78.87;96072.84;5096129;28;20475;-39
2021/12/20 07:31:21;;;;;;;12.37;6.90;;;;;;;4.27;79.20;96073.19;5093612;28;20439;-39
2021/12/20 07:33:49;;;;;;;6.80;5.40;;;;;;;4.28;79.88;96069.56;5094262;28;20938;-39
2021/12/20 07:36:19;;;;;;;4.40;4.00;;;;;;;4.11;79.44;96044.84;5094464;28;20518;-39
2021/12/20 07:38:46;;;;;;;7.67;4.77;;;;;;;4.32;78.57;96075.19;5094555;28;20443;-39
2021/12/20 07:41:14;;;;;;;7.40;5.37;;;;;;;4.33;79.06;96076.00;5094353;28;20443;-39
2021/12/20 07:43:41;;;;;;;7.50;6.80;;;;;;;4.33;79.35;96076.81;5093472;28;20490;-39
2021/12/20 07:46:10;;;;;;;5.40;4.67;;;;;;;4.38;79.10;96079.56;5093988;28;20458;-37
2021/12/20 07:48:37;;;;;;;12.90;6.67;;;;;;;4.41;77.06;96088.84;5094238;28;20451;-39
2021/12/20 07:51:04;;;;;;;7.63;4.80;;;;;;;4.64;77.31;96083.00;5094181;28;20447;-37
2021/12/20 07:53:32;;;;;;;12.70;8.47;;;;;;;4.80;76.85;96077.22;5093792;28;20469;-36
2021/12/20 07:55:59;;;;;;;8.97;5.70;;;;;;;5.02;76.31;96082.06;5093299;28;20442;-36
2021/12/20 07:58:27;;;;;;;11.60;6.07;;;;;;;5.13;76.79;96094.47;5093645;28;20446;-39
2021/12/20 08:00:55;;;;;;;3.40;3.10;;;;;;;5.15;74.79;96100.34;5093644;28;20439;-38
2021/12/20 08:03:23;;;;;;;7.83;3.10;;;;;;;5.03;76.02;96102.06;5093822;28;20478;-36
2021/12/20 08:05:51;;;;;;;4.50;3.00;;;;;;;5.00;76.13;96103.31;5093859;28;20439;-38
2021/12/20 08:08:18;;;;;;;12.23;8.90;;;;;;;4.93;75.38;96103.38;5093544;28;20918;-37
2021/12/20 08:10:45;;;;;;;10.63;7.10;;;;;;;4.92;75.50;96106.22;5094232;28;20984;-36
2021/12/20 08:13:15;;;;;;;10.40;7.20;;;;;;;4.90;76.25;96098.56;5095453;28;20440;-38
2021/12/20 08:15:42;;;;;;;13.10;8.23;;;;;;;4.91;76.77;96107.25;5095780;28;20446;-37
2021/12/20 08:18:09;;;;;;;10.53;3.00;;;;;;;4.87;75.75;96098.97;5095421;28;20540;-38
2021/12/20 08:20:38;;;;;;;5.63;3.53;;;;;;;4.86;76.34;96102.66;5095592;28;20470;-38
2021/12/20 08:23:05;;;;;;;5.63;5.00;;;;;;;4.85;76.26;96101.03;5095197;28;20493;-36
2021/12/20 08:25:35;;;;;;;6.10;4.30;;;;;;;4.84;76.79;96099.44;5095302;28;20443;-35
2021/12/20 08:28:03;;;;;;;8.13;5.07;;;;;;;4.91;76.19;96110.69;5095435;28;20450;-36
2021/12/20 08:30:31;;;;;;;4.50;3.97;;;;;;;4.94;75.69;96104.19;5095081;28;20494;-36
2021/12/20 08:32:58;;;;;;;3.70;3.10;;;;;;;5.00;75.97;96105.16;5095066;28;20439;-38
2021/12/20 08:35:25;;;;;;;6.47;3.47;;;;;;;5.02;75.80;96103.09;5095038;28;20443;-38
2021/12/20 08:37:54;;;;;;;4.30;3.10;;;;;;;5.01;74.64;96104.13;5094721;28;20450;-37
2021/12/20 08:40:23;;;;;;;3.10;2.80;;;;;;;5.05;75.56;96110.56;5094937;28;20950;-35
2021/12/20 08:42:50;;;;;;;5.27;4.43;;;;;;;5.08;74.77;96120.66;5095177;28;20492;-36
2021/12/20 08:45:18;;;;;;;6.80;4.60;;;;;;;5.10;75.25;96122.03;5094677;28;20494;-37
2021/12/20 08:47:46;;;;;;;3.53;3.03;;;;;;;5.13;74.79;96128.69;5094849;28;20960;-38
2021/12/20 08:50:16;;;;;;;5.23;2.27;;;;;;;5.03;74.15;96141.53;5094710;28;20450;-38
2021/12/20 08:52:44;;;;;;;2.53;2.33;;;;;;;4.95;75.08;96120.75;5095083;28;20795;-38
2021/12/20 08:55:14;;;;;;;17.37;11.30;;;;;;;4.89;75.72;96128.50;5095515;28;20449;-38
2021/12/20 08:57:41;;;;;;;7.63;6.23;;;;;;;4.83;76.04;96123.31;5094962;28;20447;-38
2021/12/20 09:00:12;;;;;;;13.50;5.70;;;;;;;4.84;75.97;96119.66;5094598;28;20442;-39
2021/12/20 09:02:39;;;;;;;12.03;6.80;;;;;;;4.84;75.41;96117.84;5094566;28;20443;-37
2021/12/20 09:05:07;;;;;;;16.03;8.80;;;;;;;4.84;75.70;96117.84;5094714;28;20573;-38
2021/12/20 09:07:34;;;;;;;14.17;9.53;;;;;;;4.74;76.75;96119.34;5094705;28;20462;-38
2021/12/20 09:10:01;;;;;;;14.83;9.60;;;;;;;4.79;76.09;96109.78;5094396;28;20534;-38
2021/12/20 09:12:30;;;;;;;8.20;4.73;;;;;;;4.80;76.00;96103.50;5094313;28;20806;-37
2021/12/20 09:14:57;;;;;;;18.10;10.70;;;;;;;4.86;76.86;96102.66;5094649;28;20443;-38
2021/12/20 09:17:24;;;;;;;8.27;6.13;;;;;;;4.92;76.44;96098.31;5094310;28;20439;-38
2021/12/20 09:19:53;;;;;;;17.30;6.97;;;;;;;4.92;75.94;96098.31;5094158;28;20797;-39
2021/12/20 09:22:26;;;;;;;27.40;10.70;;;;;;;4.99;76.30;96111.41;5091376;28;20532;-39
2021/12/20 09:24:53;;;;;;;53.20;21.90;;;;;;;5.04;76.15;96095.81;5092047;28;20475;-39
2021/12/20 09:27:21;;;;;;;28.80;12.30;;;;;;;5.04;75.85;96101.06;5092289;28;20517;-40
2021/12/20 09:29:50;;;;;;;17.00;8.97;;;;;;;5.03;75.44;96094.19;5091927;28;20820;-39
2021/12/20 09:32:18;;;;;;;13.93;8.07;;;;;;;4.98;75.55;96080.88;5091943;28;20443;-38
2021/12/20 09:34:46;;;;;;;14.47;8.33;;;;;;;4.97;75.36;96103.75;5091419;28;20496;-38
2021/12/20 09:37:13;;;;;;;25.03;9.63;;;;;;;4.96;74.90;96093.44;5092144;28;20812;-39
2021/12/20 09:39:42;;;;;;;15.03;8.30;;;;;;;4.99;75.24;96090.38;5092133;28;20539;-39
2021/12/20 09:42:12;;;;;;;13.63;7.53;;;;;;;4.99;75.16;96077.22;5092062;28;20443;-39
2021/12/20 09:44:43;;;;;;;20.13;8.90;;;;;;;5.03;75.51;96083.66;5092082;28;20573;-38
2021/12/20 09:47:12;;;;;;;16.07;8.03;;;;;;;5.04;74.97;96090.53;5091163;28;20426;-39
2021/12/20 09:49:40;;;;;;;33.57;13.83;;;;;;;5.10;74.59;96084.41;5091761;28;20443;-39
2021/12/20 09:52:08;;;;;;;11.87;7.50;;;;;;;5.28;73.95;96084.41;5091898;28;20443;-39
2021/12/20 09:54:37;;;;;;;16.30;9.30;;;;;;;5.43;74.01;96088.50;5091588;28;20454;-39
2021/12/20 09:57:08;;;;;;;11.37;7.53;;;;;;;5.47;73.97;96076.50;5091606;28;20447;-38
2021/12/20 09:59:37;;;;;;;10.40;6.00;;;;;;;5.44;73.16;96087.44;5091382;28;20453;-39
2021/12/20 10:02:08;;;;;;;14.10;10.00;;;;;;;5.49;73.76;96090.25;5091498;28;20443;-38
2021/12/20 10:04:37;;;;;;;6.03;3.63;;;;;;;5.62;71.77;96103.25;5091756;28;20477;-39
2021/12/20 10:07:05;;;;;;;12.23;8.37;;;;;;;5.69;71.86;96096.06;5091520;28;20450;-37
2021/12/20 10:09:34;;;;;;;10.83;8.43;;;;;;;5.72;73.03;96100.91;5091400;28;20517;-39
2021/12/20 10:12:16;;;;;;;9.97;8.97;;;;;;;5.64;72.34;96095.94;5091709;28;20438;-39
2021/12/20 10:14:59;;;;;;;10.70;7.87;;;;;;;5.62;72.60;96105.88;5091007;28;20915;-39
2021/12/20 10:17:28;;;;;;;3.70;3.40;;;;;;;5.54;72.66;96095.63;5091453;28;20431;-38
2021/12/20 10:20:12;;;;;;;12.83;8.20;;;;;;;5.45;72.87;96089.06;5091352;28;20447;-37
2021/12/20 10:22:40;;;;;;;8.40;5.87;;;;;;;5.45;73.72;96108.31;5091370;28;20435;-37
2021/12/20 10:25:21;;;;;;;15.87;8.67;;;;;;;5.37;73.19;96105.16;5091235;28;20539;-36
2021/12/20 10:27:49;;;;;;;7.07;5.20;;;;;;;5.39;73.30;96111.81;5091153;28;20550;-36
2021/12/20 10:30:26;;;;;;;8.83;3.27;;;;;;;5.24;72.60;96072.69;5091182;28;20514;-35
2021/12/20 10:32:53;;;;;;;18.30;9.80;;;;;;;5.40;73.78;96108.16;5091157;28;20426;-36
2021/12/20 10:35:35;;;;;;;3.13;2.83;;;;;;;5.41;73.07;96115.03;5091251;28;20918;-36
2021/12/20 10:38:05;;;;;;;2.70;2.43;;;;;;;5.36;72.01;96108.84;5091249;28;20423;-36
2021/12/20 10:40:34;;;;;;;4.53;2.70;;;;;;;5.28;72.59;96105.44;5090837;28;20447;-37
2021/12/20 10:43:08;;;;;;;3.50;3.23;;;;;;;5.21;73.52;96125.78;5091141;28;20502;-37
2021/12/20 10:45:35;;;;;;;5.67;4.47;;;;;;;5.14;74.09;96122.38;5091049;28;20482;-35
2021/12/20 10:48:10;;;;;;;2.10;2.00;;;;;;;5.12;74.24;96116.56;5091118;28;20447;-35
2021/12/20 10:50:43;;;;;;;6.07;4.43;;;;;;;5.09;75.28;96122.25;5091428;28;20442;-37
2021/12/20 10:53:17;;;;;;;4.23;3.90;;;;;;;5.06;75.15;96133.22;5090979;28;20451;-39
2021/12/20 10:55:47;;;;;;;5.27;3.67;;;;;;;4.88;75.20;96118.19;5091433;28;20492;-38
2021/12/20 10:58:19;;;;;;;8.17;5.00;;;;;;;4.88;75.58;96121.66;5091225;28;20442;-38
2021/12/20 11:00:47;;;;;;;5.10;4.60;;;;;;;4.90;75.81;96124.03;5093772;28;20447;-38
2021/12/20 11:03:28;;;;;;;7.87;5.03;;;;;;;4.88;76.16;96132.16;5095097;28;20446;-36
2021/12/20 11:06:13;;;;;;;3.93;3.53;;;;;;;4.86;75.33;96122.88;5094309;28;21002;-38
2021/12/20 11:11:27;;;;;;;2.33;1.90;;;;;;;4.83;74.92;96139.09;5094554;28;20418;-37
2021/12/20 11:13:54;;;;;;;6.13;4.30;;;;;;;4.76;75.61;96128.63;5094500;28;20442;-38
2021/12/20 11:16:30;;;;;;;10.07;4.73;;;;;;;4.69;75.64;96131.31;5094545;28;20450;-38
2021/12/20 11:19:11;;;;;;;4.70;3.03;;;;;;;4.79;75.31;96122.94;5094457;28;20931;-37
2021/12/20 11:21:48;;;;;;;10.87;3.90;;;;;;;4.74;76.30;96111.47;5094470;28;20446;-38
2021/12/20 11:24:17;;;;;;;8.13;4.90;;;;;;;4.82;76.26;96121.69;5094611;28;20666;-38
2021/12/20 11:26:45;;;;;;;3.20;2.27;;;;;;;4.86;75.29;96122.88;5094658;28;20438;-38
2021/12/20 11:29:12;;;;;;;3.67;3.37;;;;;;;4.92;76.56;96109.66;5094260;28;20478;-38
2021/12/20 11:31:40;;;;;;;5.47;3.00;;;;;;;4.97;76.37;96118.72;5093908;28;20451;-38
2021/12/20 11:34:07;;;;;;;4.40;3.20;;;;;;;5.01;76.08;96110.19;5094426;28;20465;-38
2021/12/20 11:36:35;;;;;;;3.63;2.93;;;;;;;5.03;75.21;96109.97;5096499;28;20833;-38
2021/12/20 11:39:05;;;;;;;6.97;4.63;;;;;;;5.04;76.32;96103.69;5096439;28;20450;-38
2021/12/20 11:41:32;;;;;;;6.20;4.67;;;;;;;5.09;75.87;96114.34;5096426;28;20919;-38
2021/12/20 11:44:01;;;;;;;5.97;5.10;;;;;;;5.09;76.07;96111.72;5096041;28;20439;-37
2021/12/20 11:46:33;;;;;;;4.50;3.40;;;;;;;4.75;76.04;96063.09;5095890;28;21024;-38
2021/12/20 11:49:01;;;;;;;3.83;2.20;;;;;;;5.06;73.59;96117.44;5096256;28;20785;-37
2021/12/20 11:51:28;;;;;;;34.40;14.93;;;;;;;5.09;73.92;96124.88;5096194;28;20459;-37
2021/12/20 11:53:56;;;;;;;13.70;8.80;;;;;;;5.10;72.94;96129.13;5096156;28;20836;-37
2021/12/20 11:56:38;;;;;;;5.53;3.00;;;;;;;5.14;70.86;96117.13;5096056;28;20806;-37
2021/12/20 11:59:06;;;;;;;9.77;4.37;;;;;;;5.12;69.86;96132.34;5095857;28;20922;-37
2021/12/20 12:01:33;;;;;;;25.63;12.07;;;;;;;5.07;70.14;96140.88;5096030;28;20454;-36